sensor_id;sensor_type;location;lat;lon;timestamp;temperature;humidity
3202;DHT22;34843;48.744;8.958;2022-07-29T00:00:37;19.70;99.90
3202;DHT22;34843;48.744;8.958;2022-07-29T00:03:03;19.60;99.90
3202;DHT22;34843;48.744;8.958;2022-07-29T00:05:28;19.60;99.90
3202;DHT22;34843;48.744;8.958;2022-07-29T00:07:54;19.60;99.90
3202;DHT22;34843;48.744;8.958;2022-07-29T00:10:20;19.60;99.90
3202;DHT22;34843;48.744;8.958;2022-07-29T00:12:45;19.50;99.90
3202;DHT22;34843;48.744;8.958;2022-07-29T00:15:11;19.50;99.90
3202;DHT22;34843;48.744;8.958;2022-07-29T00:17:36;19.40;99.90
3202;DHT22;34843;48.744;8.958;2022-07-29T00:20:03;19.40;99.90
3202;DHT22;34843;48.744;8.958;2022-07-29T00:22:29;19.30;99.90
3202;DHT22;34843;48.744;8.958;2022-07-29T00:24:54;19.30;99.90
3202;DHT22;34843;48.744;8.958;2022-07-29T00:27:20;19.30;99.90
3202;DHT22;34843;48.744;8.958;2022-07-29T00:29:45;19.30;99.90
3202;DHT22;34843;48.744;8.958;2022-07-29T00:32:11;19.30;99.90
3202;DHT22;34843;48.744;8.958;2022-07-29T00:34:36;19.20;99.90
3202;DHT22;34843;48.744;8.958;2022-07-29T00:37:20;19.10;99.90
3202;DHT22;34843;48.744;8.958;2022-07-29T00:39:47;19.10;99.90
3202;DHT22;34843;48.744;8.958;2022-07-29T00:42:12;19.10;99.90
3202;DHT22;34843;48.744;8.958;2022-07-29T00:44:39;19.10;99.90
3202;DHT22;34843;48.744;8.958;2022-07-29T00:47:06;19.10;99.90
3202;DHT22;34843;48.744;8.958;2022-07-29T00:49:33;19.10;99.90
3202;DHT22;34843;48.744;8.958;2022-07-29T00:52:01;19.10;99.90
3202;DHT22;34843;48.744;8.958;2022-07-29T00:54:26;19.00;99.90
3202;DHT22;34843;48.744;8.958;2022-07-29T00:56:52;19.00;99.90
3202;DHT22;34843;48.744;8.958;2022-07-29T00:59:18;19.00;99.90
3202;DHT22;34843;48.744;8.958;2022-07-29T01:01:43;19.00;99.90
3202;DHT22;34843;48.744;8.958;2022-07-29T01:04:09;19.00;99.90
3202;DHT22;34843;48.744;8.958;2022-07-29T01:06:35;19.00;99.90
3202;DHT22;34843;48.744;8.958;2022-07-29T01:09:01;19.00;99.90
3202;DHT22;34843;48.744;8.958;2022-07-29T01:11:27;19.00;99.90
3202;DHT22;34843;48.744;8.958;2022-07-29T01:13:53;19.00;99.90
3202;DHT22;34843;48.744;8.958;2022-07-29T01:16:32;19.00;99.90
3202;DHT22;34843;48.744;8.958;2022-07-29T01:21:50;18.90;99.90
3202;DHT22;34843;48.744;8.958;2022-07-29T01:29:58;18.90;99.90
3202;DHT22;34843;48.744;8.958;2022-07-29T01:32:33;18.90;99.90
3202;DHT22;34843;48.744;8.958;2022-07-29T01:35:10;18.90;99.90
3202;DHT22;34843;48.744;8.958;2022-07-29T01:37:55;18.80;99.90
3202;DHT22;34843;48.744;8.958;2022-07-29T01:40:36;18.90;99.90
3202;DHT22;34843;48.744;8.958;2022-07-29T01:43:10;18.80;99.90
3202;DHT22;34843;48.744;8.958;2022-07-29T01:45:40;18.80;99.90
3202;DHT22;34843;48.744;8.958;2022-07-29T01:48:24;18.80;99.90
3202;DHT22;34843;48.744;8.958;2022-07-29T01:51:07;18.70;99.90
3202;DHT22;34843;48.744;8.958;2022-07-29T01:53:46;18.70;99.90
3202;DHT22;34843;48.744;8.958;2022-07-29T01:56:13;18.70;99.90
3202;DHT22;34843;48.744;8.958;2022-07-29T01:58:41;18.70;99.90
3202;DHT22;34843;48.744;8.958;2022-07-29T02:01:09;18.80;99.90
3202;DHT22;34843;48.744;8.958;2022-07-29T02:03:37;18.90;99.90
3202;DHT22;34843;48.744;8.958;2022-07-29T02:06:05;18.80;99.90
3202;DHT22;34843;48.744;8.958;2022-07-29T02:08:32;18.80;99.90
3202;DHT22;34843;48.744;8.958;2022-07-29T02:11:00;18.80;99.90
3202;DHT22;34843;48.744;8.958;2022-07-29T02:13:28;18.90;99.90
3202;DHT22;34843;48.744;8.958;2022-07-29T02:15:56;18.90;99.90
3202;DHT22;34843;48.744;8.958;2022-07-29T02:18:23;18.90;99.90
3202;DHT22;34843;48.744;8.958;2022-07-29T02:20:53;18.90;99.90
3202;DHT22;34843;48.744;8.958;2022-07-29T02:23:24;18.80;99.90
3202;DHT22;34843;48.744;8.958;2022-07-29T02:25:55;18.80;99.90
3202;DHT22;34843;48.744;8.958;2022-07-29T02:28:24;18.80;99.90
3202;DHT22;34843;48.744;8.958;2022-07-29T02:30:52;18.80;99.90
3202;DHT22;34843;48.744;8.958;2022-07-29T02:33:19;18.80;99.90
3202;DHT22;34843;48.744;8.958;2022-07-29T02:35:47;18.80;99.90
3202;DHT22;34843;48.744;8.958;2022-07-29T02:38:15;18.80;99.90
3202;DHT22;34843;48.744;8.958;2022-07-29T02:41:01;18.90;99.90
3202;DHT22;34843;48.744;8.958;2022-07-29T02:43:30;18.90;99.90
3202;DHT22;34843;48.744;8.958;2022-07-29T02:45:56;18.90;99.90
3202;DHT22;34843;48.744;8.958;2022-07-29T02:48:36;18.80;99.90
3202;DHT22;34843;48.744;8.958;2022-07-29T02:51:08;18.90;99.90
3202;DHT22;34843;48.744;8.958;2022-07-29T02:53:38;18.80;99.90
3202;DHT22;34843;48.744;8.958;2022-07-29T02:56:11;18.90;99.90
3202;DHT22;34843;48.744;8.958;2022-07-29T02:58:46;18.90;99.90
3202;DHT22;34843;48.744;8.958;2022-07-29T03:01:16;18.80;99.90
3202;DHT22;34843;48.744;8.958;2022-07-29T03:03:44;18.70;99.90
3202;DHT22;34843;48.744;8.958;2022-07-29T03:06:13;18.70;99.90
3202;DHT22;34843;48.744;8.958;2022-07-29T03:08:40;18.70;99.90
3202;DHT22;34843;48.744;8.958;2022-07-29T03:11:07;18.70;99.90
3202;DHT22;34843;48.744;8.958;2022-07-29T03:13:35;18.70;99.90
3202;DHT22;34843;48.744;8.958;2022-07-29T03:16:01;18.60;99.90
3202;DHT22;34843;48.744;8.958;2022-07-29T03:18:27;18.50;99.90
3202;DHT22;34843;48.744;8.958;2022-07-29T03:20:52;18.50;99.90
3202;DHT22;34843;48.744;8.958;2022-07-29T03:23:19;18.40;99.90
3202;DHT22;34843;48.744;8.958;2022-07-29T03:25:46;18.40;99.90
3202;DHT22;34843;48.744;8.958;2022-07-29T03:28:11;18.40;99.90
3202;DHT22;34843;48.744;8.958;2022-07-29T03:30:37;18.40;99.90
3202;DHT22;34843;48.744;8.958;2022-07-29T03:33:02;18.30;99.90
3202;DHT22;34843;48.744;8.958;2022-07-29T03:35:28;18.30;99.90
3202;DHT22;34843;48.744;8.958;2022-07-29T03:37:55;18.20;99.90
3202;DHT22;34843;48.744;8.958;2022-07-29T03:40:27;18.30;99.90
3202;DHT22;34843;48.744;8.958;2022-07-29T03:42:56;18.30;99.90
3202;DHT22;34843;48.744;8.958;2022-07-29T03:45:24;18.30;99.90
3202;DHT22;34843;48.744;8.958;2022-07-29T03:47:54;18.30;99.90
3202;DHT22;34843;48.744;8.958;2022-07-29T03:50:21;18.30;99.90
3202;DHT22;34843;48.744;8.958;2022-07-29T03:52:47;18.20;99.90
3202;DHT22;34843;48.744;8.958;2022-07-29T03:55:13;18.20;99.90
3202;DHT22;34843;48.744;8.958;2022-07-29T03:57:40;18.20;99.90
3202;DHT22;34843;48.744;8.958;2022-07-29T04:00:07;18.20;99.90
3202;DHT22;34843;48.744;8.958;2022-07-29T04:02:33;18.20;99.90
3202;DHT22;34843;48.744;8.958;2022-07-29T04:04:59;18.20;99.90
3202;DHT22;34843;48.744;8.958;2022-07-29T04:07:24;18.20;99.90
3202;DHT22;34843;48.744;8.958;2022-07-29T04:09:50;18.30;99.90
3202;DHT22;34843;48.744;8.958;2022-07-29T04:12:16;18.30;99.90
3202;DHT22;34843;48.744;8.958;2022-07-29T04:14:41;18.40;99.90
3202;DHT22;34843;48.744;8.958;2022-07-29T04:17:07;18.50;99.90
3202;DHT22;34843;48.744;8.958;2022-07-29T04:19:33;18.50;99.90
3202;DHT22;34843;48.744;8.958;2022-07-29T04:21:59;18.50;99.90
3202;DHT22;34843;48.744;8.958;2022-07-29T04:24:25;18.60;99.90
3202;DHT22;34843;48.744;8.958;2022-07-29T04:26:50;18.70;99.90
3202;DHT22;34843;48.744;8.958;2022-07-29T04:29:16;18.70;99.90
3202;DHT22;34843;48.744;8.958;2022-07-29T04:31:42;18.80;99.90
3202;DHT22;34843;48.744;8.958;2022-07-29T04:34:08;18.90;99.90
3202;DHT22;34843;48.744;8.958;2022-07-29T04:36:34;19.00;99.90
3202;DHT22;34843;48.744;8.958;2022-07-29T04:39:00;18.90;99.90
3202;DHT22;34843;48.744;8.958;2022-07-29T04:41:27;19.10;99.90
3202;DHT22;34843;48.744;8.958;2022-07-29T04:43:52;19.50;99.90
3202;DHT22;34843;48.744;8.958;2022-07-29T04:46:18;19.90;99.90
3202;DHT22;34843;48.744;8.958;2022-07-29T04:48:45;20.40;99.90
3202;DHT22;34843;48.744;8.958;2022-07-29T04:51:12;20.90;99.90
3202;DHT22;34843;48.744;8.958;2022-07-29T04:53:37;21.10;99.90
3202;DHT22;34843;48.744;8.958;2022-07-29T04:56:03;21.20;99.90
3202;DHT22;34843;48.744;8.958;2022-07-29T04:58:28;21.80;99.90
3202;DHT22;34843;48.744;8.958;2022-07-29T05:00:54;22.50;99.90
3202;DHT22;34843;48.744;8.958;2022-07-29T05:03:19;23.20;99.90
3202;DHT22;34843;48.744;8.958;2022-07-29T05:05:45;23.40;99.90
3202;DHT22;34843;48.744;8.958;2022-07-29T05:08:11;23.60;99.90
3202;DHT22;34843;48.744;8.958;2022-07-29T05:10:36;23.90;99.90
3202;DHT22;34843;48.744;8.958;2022-07-29T05:13:04;24.20;99.90
3202;DHT22;34843;48.744;8.958;2022-07-29T05:15:31;24.30;99.90
3202;DHT22;34843;48.744;8.958;2022-07-29T05:17:57;24.40;99.90
3202;DHT22;34843;48.744;8.958;2022-07-29T05:20:22;24.40;99.90
3202;DHT22;34843;48.744;8.958;2022-07-29T05:22:52;24.10;99.90
3202;DHT22;34843;48.744;8.958;2022-07-29T05:25:17;23.70;99.90
3202;DHT22;34843;48.744;8.958;2022-07-29T05:27:43;23.40;99.90
3202;DHT22;34843;48.744;8.958;2022-07-29T05:30:09;23.40;99.90
3202;DHT22;34843;48.744;8.958;2022-07-29T05:32:34;23.70;99.90
3202;DHT22;34843;48.744;8.958;2022-07-29T05:35:00;24.50;99.90
3202;DHT22;34843;48.744;8.958;2022-07-29T05:37:26;25.40;99.90
3202;DHT22;34843;48.744;8.958;2022-07-29T05:39:51;26.30;99.90
3202;DHT22;34843;48.744;8.958;2022-07-29T05:42:17;26.80;99.90
3202;DHT22;34843;48.744;8.958;2022-07-29T05:44:42;27.00;99.90
3202;DHT22;34843;48.744;8.958;2022-07-29T05:47:08;26.90;99.90
3202;DHT22;34843;48.744;8.958;2022-07-29T05:49:33;26.90;99.90
3202;DHT22;34843;48.744;8.958;2022-07-29T05:51:59;27.20;99.90
3202;DHT22;34843;48.744;8.958;2022-07-29T05:54:25;27.60;99.90
3202;DHT22;34843;48.744;8.958;2022-07-29T05:56:51;27.60;99.90
3202;DHT22;34843;48.744;8.958;2022-07-29T05:59:16;27.30;99.90
3202;DHT22;34843;48.744;8.958;2022-07-29T06:01:42;27.50;99.90
3202;DHT22;34843;48.744;8.958;2022-07-29T06:04:07;27.80;99.90
3202;DHT22;34843;48.744;8.958;2022-07-29T06:06:33;28.00;99.90
3202;DHT22;34843;48.744;8.958;2022-07-29T06:09:00;28.20;99.90
3202;DHT22;34843;48.744;8.958;2022-07-29T06:11:25;28.70;99.90
3202;DHT22;34843;48.744;8.958;2022-07-29T06:13:51;29.10;99.90
3202;DHT22;34843;48.744;8.958;2022-07-29T06:16:16;29.40;99.90
3202;DHT22;34843;48.744;8.958;2022-07-29T06:18:42;29.50;99.90
3202;DHT22;34843;48.744;8.958;2022-07-29T06:21:08;29.80;99.90
3202;DHT22;34843;48.744;8.958;2022-07-29T06:23:38;29.30;99.90
3202;DHT22;34843;48.744;8.958;2022-07-29T06:26:04;28.70;99.90
3202;DHT22;34843;48.744;8.958;2022-07-29T06:28:30;27.90;99.90
3202;DHT22;34843;48.744;8.958;2022-07-29T06:30:56;27.40;99.90
3202;DHT22;34843;48.744;8.958;2022-07-29T06:33:21;27.40;99.90
3202;DHT22;34843;48.744;8.958;2022-07-29T06:35:47;27.50;99.90
3202;DHT22;34843;48.744;8.958;2022-07-29T06:38:14;28.20;99.90
3202;DHT22;34843;48.744;8.958;2022-07-29T06:40:44;28.40;99.90
3202;DHT22;34843;48.744;8.958;2022-07-29T06:43:33;28.60;99.90
3202;DHT22;34843;48.744;8.958;2022-07-29T06:46:02;28.50;99.90
3202;DHT22;34843;48.744;8.958;2022-07-29T06:48:29;28.50;99.90
3202;DHT22;34843;48.744;8.958;2022-07-29T06:50:54;28.40;99.90
3202;DHT22;34843;48.744;8.958;2022-07-29T06:53:20;28.30;99.90
3202;DHT22;34843;48.744;8.958;2022-07-29T06:55:46;28.70;99.90
3202;DHT22;34843;48.744;8.958;2022-07-29T06:58:11;29.20;99.90
3202;DHT22;34843;48.744;8.958;2022-07-29T07:00:39;29.80;99.90
3202;DHT22;34843;48.744;8.958;2022-07-29T07:03:04;30.20;99.90
3202;DHT22;34843;48.744;8.958;2022-07-29T07:05:30;30.40;99.90
3202;DHT22;34843;48.744;8.958;2022-07-29T07:07:56;30.00;99.90
3202;DHT22;34843;48.744;8.958;2022-07-29T07:10:21;29.40;99.90
3202;DHT22;34843;48.744;8.958;2022-07-29T07:12:47;29.00;99.90
3202;DHT22;34843;48.744;8.958;2022-07-29T07:15:12;29.00;99.90
3202;DHT22;34843;48.744;8.958;2022-07-29T07:17:38;28.90;99.90
3202;DHT22;34843;48.744;8.958;2022-07-29T07:20:05;28.90;99.90
3202;DHT22;34843;48.744;8.958;2022-07-29T07:22:31;28.90;99.90
3202;DHT22;34843;48.744;8.958;2022-07-29T07:24:56;28.80;99.90
3202;DHT22;34843;48.744;8.958;2022-07-29T07:27:22;28.50;99.90
3202;DHT22;34843;48.744;8.958;2022-07-29T07:29:47;28.40;99.90
3202;DHT22;34843;48.744;8.958;2022-07-29T07:32:13;28.50;99.90
3202;DHT22;34843;48.744;8.958;2022-07-29T07:34:42;28.90;99.90
3202;DHT22;34843;48.744;8.958;2022-07-29T07:37:07;29.50;99.90
3202;DHT22;34843;48.744;8.958;2022-07-29T07:39:33;30.10;99.90
3202;DHT22;34843;48.744;8.958;2022-07-29T07:41:59;30.70;99.90
3202;DHT22;34843;48.744;8.958;2022-07-29T07:44:24;31.00;99.90
3202;DHT22;34843;48.744;8.958;2022-07-29T07:46:50;31.00;99.90
3202;DHT22;34843;48.744;8.958;2022-07-29T07:49:15;30.90;99.90
3202;DHT22;34843;48.744;8.958;2022-07-29T07:51:41;30.80;99.90
3202;DHT22;34843;48.744;8.958;2022-07-29T07:54:07;30.70;99.90
3202;DHT22;34843;48.744;8.958;2022-07-29T07:56:32;30.70;99.90
3202;DHT22;34843;48.744;8.958;2022-07-29T07:58:58;30.90;99.90
3202;DHT22;34843;48.744;8.958;2022-07-29T08:01:23;31.20;99.90
3202;DHT22;34843;48.744;8.958;2022-07-29T08:03:49;31.40;99.90
3202;DHT22;34843;48.744;8.958;2022-07-29T08:06:15;31.70;99.90
3202;DHT22;34843;48.744;8.958;2022-07-29T08:08:41;31.70;99.90
3202;DHT22;34843;48.744;8.958;2022-07-29T08:11:06;31.50;99.90
3202;DHT22;34843;48.744;8.958;2022-07-29T08:13:32;31.40;99.90
3202;DHT22;34843;48.744;8.958;2022-07-29T08:15:58;31.20;99.90
3202;DHT22;34843;48.744;8.958;2022-07-29T08:18:27;30.90;99.90
3202;DHT22;34843;48.744;8.958;2022-07-29T08:20:53;30.50;99.90
3202;DHT22;34843;48.744;8.958;2022-07-29T08:23:18;30.00;99.90
3202;DHT22;34843;48.744;8.958;2022-07-29T08:25:48;29.50;99.90
3202;DHT22;34843;48.744;8.958;2022-07-29T08:28:14;29.20;99.90
3202;DHT22;34843;48.744;8.958;2022-07-29T08:30:39;29.00;99.90
3202;DHT22;34843;48.744;8.958;2022-07-29T08:33:05;28.70;99.90
3202;DHT22;34843;48.744;8.958;2022-07-29T08:35:31;28.50;99.90
3202;DHT22;34843;48.744;8.958;2022-07-29T08:37:56;28.40;99.90
3202;DHT22;34843;48.744;8.958;2022-07-29T08:40:22;28.20;99.90
3202;DHT22;34843;48.744;8.958;2022-07-29T08:42:49;28.00;99.90
3202;DHT22;34843;48.744;8.958;2022-07-29T08:45:15;27.60;99.90
3202;DHT22;34843;48.744;8.958;2022-07-29T08:47:40;27.40;99.90
3202;DHT22;34843;48.744;8.958;2022-07-29T08:50:08;27.20;99.90
3202;DHT22;34843;48.744;8.958;2022-07-29T08:52:37;27.10;99.90
3202;DHT22;34843;48.744;8.958;2022-07-29T08:55:05;27.10;99.90
3202;DHT22;34843;48.744;8.958;2022-07-29T08:57:32;27.00;99.90
3202;DHT22;34843;48.744;8.958;2022-07-29T09:00:00;26.90;99.90
3202;DHT22;34843;48.744;8.958;2022-07-29T09:02:28;26.80;99.90
3202;DHT22;34843;48.744;8.958;2022-07-29T09:04:54;26.70;99.90
3202;DHT22;34843;48.744;8.958;2022-07-29T09:07:20;26.70;99.90
3202;DHT22;34843;48.744;8.958;2022-07-29T09:09:46;26.70;99.90
3202;DHT22;34843;48.744;8.958;2022-07-29T09:12:12;26.80;99.90
3202;DHT22;34843;48.744;8.958;2022-07-29T09:14:39;26.90;99.90
3202;DHT22;34843;48.744;8.958;2022-07-29T09:17:05;27.00;99.90
3202;DHT22;34843;48.744;8.958;2022-07-29T09:19:33;27.10;99.90
3202;DHT22;34843;48.744;8.958;2022-07-29T09:22:01;27.10;99.90
3202;DHT22;34843;48.744;8.958;2022-07-29T09:24:41;27.10;99.90
3202;DHT22;34843;48.744;8.958;2022-07-29T09:27:09;27.10;99.90
3202;DHT22;34843;48.744;8.958;2022-07-29T09:29:36;27.10;99.90
3202;DHT22;34843;48.744;8.958;2022-07-29T09:32:06;27.30;99.90
3202;DHT22;34843;48.744;8.958;2022-07-29T09:34:33;27.30;99.90
3202;DHT22;34843;48.744;8.958;2022-07-29T09:36:58;27.40;99.90
3202;DHT22;34843;48.744;8.958;2022-07-29T09:39:31;27.40;99.90
3202;DHT22;34843;48.744;8.958;2022-07-29T09:41:59;27.40;99.90
3202;DHT22;34843;48.744;8.958;2022-07-29T09:44:26;27.40;99.90
3202;DHT22;34843;48.744;8.958;2022-07-29T09:46:59;27.40;99.90
3202;DHT22;34843;48.744;8.958;2022-07-29T09:49:32;27.40;99.90
3202;DHT22;34843;48.744;8.958;2022-07-29T09:52:07;27.40;99.90
3202;DHT22;34843;48.744;8.958;2022-07-29T09:54:33;27.40;99.90
3202;DHT22;34843;48.744;8.958;2022-07-29T09:57:08;27.30;99.90
3202;DHT22;34843;48.744;8.958;2022-07-29T09:59:38;27.20;99.90
3202;DHT22;34843;48.744;8.958;2022-07-29T10:02:11;27.00;99.90
3202;DHT22;34843;48.744;8.958;2022-07-29T10:04:42;26.90;99.90
3202;DHT22;34843;48.744;8.958;2022-07-29T10:07:08;26.80;99.90
3202;DHT22;34843;48.744;8.958;2022-07-29T10:09:35;26.70;99.90
3202;DHT22;34843;48.744;8.958;2022-07-29T10:12:09;26.40;99.90
3202;DHT22;34843;48.744;8.958;2022-07-29T10:14:35;26.10;99.90
3202;DHT22;34843;48.744;8.958;2022-07-29T10:17:02;26.00;99.90
3202;DHT22;34843;48.744;8.958;2022-07-29T10:19:29;26.00;99.90
3202;DHT22;34843;48.744;8.958;2022-07-29T10:21:57;26.00;99.90
3202;DHT22;34843;48.744;8.958;2022-07-29T10:24:27;26.00;99.90
3202;DHT22;34843;48.744;8.958;2022-07-29T10:26:58;25.80;99.90
3202;DHT22;34843;48.744;8.958;2022-07-29T10:29:25;25.80;99.90
3202;DHT22;34843;48.744;8.958;2022-07-29T10:32:18;25.60;99.90
3202;DHT22;34843;48.744;8.958;2022-07-29T10:44:17;23.70;99.90
3202;DHT22;34843;48.744;8.958;2022-07-29T10:46:44;23.30;99.90
3202;DHT22;34843;48.744;8.958;2022-07-29T10:49:15;22.90;99.90
3202;DHT22;34843;48.744;8.958;2022-07-29T10:54:19;22.50;99.90
3202;DHT22;34843;48.744;8.958;2022-07-29T10:59:49;22.10;99.90
3202;DHT22;34843;48.744;8.958;2022-07-29T11:05:12;21.90;99.90
3202;DHT22;34843;48.744;8.958;2022-07-29T11:07:40;21.80;99.90
3202;DHT22;34843;48.744;8.958;2022-07-29T11:10:25;21.80;99.90
3202;DHT22;34843;48.744;8.958;2022-07-29T11:12:50;21.80;99.90
3202;DHT22;34843;48.744;8.958;2022-07-29T11:15:21;21.70;99.90
3202;DHT22;34843;48.744;8.958;2022-07-29T11:20:41;22.00;99.90
3202;DHT22;34843;48.744;8.958;2022-07-29T11:23:36;22.00;99.90
3202;DHT22;34843;48.744;8.958;2022-07-29T11:26:19;22.10;99.90
3202;DHT22;34843;48.744;8.958;2022-07-29T11:31:37;22.00;99.90
3202;DHT22;34843;48.744;8.958;2022-07-29T11:34:21;22.10;99.90
3202;DHT22;34843;48.744;8.958;2022-07-29T11:39:36;22.50;99.90
3202;DHT22;34843;48.744;8.958;2022-07-29T11:45:05;22.80;99.90
3202;DHT22;34843;48.744;8.958;2022-07-29T11:47:33;22.90;99.90
3202;DHT22;34843;48.744;8.958;2022-07-29T11:50:00;23.00;99.90
3202;DHT22;34843;48.744;8.958;2022-07-29T11:52:46;23.10;99.90
3202;DHT22;34843;48.744;8.958;2022-07-29T11:55:18;23.30;99.90
3202;DHT22;34843;48.744;8.958;2022-07-29T11:57:53;23.40;99.90
3202;DHT22;34843;48.744;8.958;2022-07-29T12:00:26;23.70;99.90
3202;DHT22;34843;48.744;8.958;2022-07-29T12:02:52;23.90;99.90
3202;DHT22;34843;48.744;8.958;2022-07-29T12:05:18;23.90;99.90
3202;DHT22;34843;48.744;8.958;2022-07-29T12:07:44;23.60;99.90
3202;DHT22;34843;48.744;8.958;2022-07-29T12:10:10;23.40;99.90
3202;DHT22;34843;48.744;8.958;2022-07-29T12:12:36;23.30;99.90
3202;DHT22;34843;48.744;8.958;2022-07-29T12:15:17;23.10;99.90
3202;DHT22;34843;48.744;8.958;2022-07-29T12:17:45;23.10;99.90
3202;DHT22;34843;48.744;8.958;2022-07-29T12:20:11;23.10;99.90
3202;DHT22;34843;48.744;8.958;2022-07-29T12:22:40;23.20;99.90
3202;DHT22;34843;48.744;8.958;2022-07-29T12:25:11;23.20;99.90
3202;DHT22;34843;48.744;8.958;2022-07-29T12:27:38;23.20;99.90
3202;DHT22;34843;48.744;8.958;2022-07-29T12:30:09;23.30;99.90
3202;DHT22;34843;48.744;8.958;2022-07-29T12:32:35;23.30;99.90
3202;DHT22;34843;48.744;8.958;2022-07-29T12:35:06;23.30;99.90
3202;DHT22;34843;48.744;8.958;2022-07-29T12:37:34;23.30;99.90
3202;DHT22;34843;48.744;8.958;2022-07-29T12:40:02;23.30;99.90
3202;DHT22;34843;48.744;8.958;2022-07-29T12:42:28;23.30;99.90
3202;DHT22;34843;48.744;8.958;2022-07-29T12:44:53;23.30;99.90
3202;DHT22;34843;48.744;8.958;2022-07-29T12:47:20;23.40;99.90
3202;DHT22;34843;48.744;8.958;2022-07-29T12:49:46;23.50;99.90
3202;DHT22;34843;48.744;8.958;2022-07-29T12:52:32;23.50;99.90
3202;DHT22;34843;48.744;8.958;2022-07-29T12:54:58;23.30;99.90
3202;DHT22;34843;48.744;8.958;2022-07-29T12:57:24;23.10;99.90
3202;DHT22;34843;48.744;8.958;2022-07-29T13:00:10;22.90;99.90
3202;DHT22;34843;48.744;8.958;2022-07-29T13:02:37;22.90;99.90
3202;DHT22;34843;48.744;8.958;2022-07-29T13:05:04;22.90;99.90
3202;DHT22;34843;48.744;8.958;2022-07-29T13:07:31;22.90;99.90
3202;DHT22;34843;48.744;8.958;2022-07-29T13:10:18;22.90;99.90
3202;DHT22;34843;48.744;8.958;2022-07-29T13:13:10;22.90;99.90
3202;DHT22;34843;48.744;8.958;2022-07-29T13:15:39;22.90;99.90
3202;DHT22;34843;48.744;8.958;2022-07-29T13:18:26;22.80;99.90
3202;DHT22;34843;48.744;8.958;2022-07-29T13:20:51;22.80;99.90
3202;DHT22;34843;48.744;8.958;2022-07-29T13:23:16;22.90;99.90
3202;DHT22;34843;48.744;8.958;2022-07-29T13:25:42;23.00;99.90
3202;DHT22;34843;48.744;8.958;2022-07-29T13:28:07;23.00;99.90
3202;DHT22;34843;48.744;8.958;2022-07-29T13:30:33;23.20;99.90
3202;DHT22;34843;48.744;8.958;2022-07-29T13:32:58;23.40;99.90
3202;DHT22;34843;48.744;8.958;2022-07-29T13:35:24;23.70;99.90
3202;DHT22;34843;48.744;8.958;2022-07-29T13:37:49;24.10;99.90
3202;DHT22;34843;48.744;8.958;2022-07-29T13:40:15;24.30;99.90
3202;DHT22;34843;48.744;8.958;2022-07-29T13:42:41;24.50;99.90
3202;DHT22;34843;48.744;8.958;2022-07-29T13:45:08;24.70;99.90
3202;DHT22;34843;48.744;8.958;2022-07-29T13:47:33;24.90;99.90
3202;DHT22;34843;48.744;8.958;2022-07-29T13:50:00;25.00;99.90
3202;DHT22;34843;48.744;8.958;2022-07-29T13:52:26;25.10;99.90
3202;DHT22;34843;48.744;8.958;2022-07-29T13:54:51;25.10;99.90
3202;DHT22;34843;48.744;8.958;2022-07-29T13:57:17;25.20;99.90
3202;DHT22;34843;48.744;8.958;2022-07-29T13:59:43;25.40;99.90
3202;DHT22;34843;48.744;8.958;2022-07-29T14:02:10;25.60;99.90
3202;DHT22;34843;48.744;8.958;2022-07-29T14:04:35;25.70;99.90
3202;DHT22;34843;48.744;8.958;2022-07-29T14:07:02;25.90;99.90
3202;DHT22;34843;48.744;8.958;2022-07-29T14:09:28;26.00;99.90
3202;DHT22;34843;48.744;8.958;2022-07-29T14:11:53;26.10;99.90
3202;DHT22;34843;48.744;8.958;2022-07-29T14:14:19;26.30;99.90
3202;DHT22;34843;48.744;8.958;2022-07-29T14:16:45;26.20;99.90
3202;DHT22;34843;48.744;8.958;2022-07-29T14:19:11;26.10;99.90
3202;DHT22;34843;48.744;8.958;2022-07-29T14:21:37;26.20;99.90
3202;DHT22;34843;48.744;8.958;2022-07-29T14:24:04;26.10;99.90
3202;DHT22;34843;48.744;8.958;2022-07-29T14:26:29;26.00;99.90
3202;DHT22;34843;48.744;8.958;2022-07-29T14:28:55;26.10;99.90
3202;DHT22;34843;48.744;8.958;2022-07-29T14:31:20;26.00;99.90
3202;DHT22;34843;48.744;8.958;2022-07-29T14:33:46;26.00;99.90
3202;DHT22;34843;48.744;8.958;2022-07-29T14:36:12;25.90;99.90
3202;DHT22;34843;48.744;8.958;2022-07-29T14:38:37;26.00;99.90
3202;DHT22;34843;48.744;8.958;2022-07-29T14:41:03;25.90;99.90
3202;DHT22;34843;48.744;8.958;2022-07-29T14:43:29;25.90;99.90
3202;DHT22;34843;48.744;8.958;2022-07-29T14:45:55;26.00;99.90
3202;DHT22;34843;48.744;8.958;2022-07-29T14:48:20;25.90;99.90
3202;DHT22;34843;48.744;8.958;2022-07-29T14:50:46;25.90;99.90
3202;DHT22;34843;48.744;8.958;2022-07-29T14:53:11;25.90;99.90
3202;DHT22;34843;48.744;8.958;2022-07-29T14:55:40;26.10;99.90
3202;DHT22;34843;48.744;8.958;2022-07-29T14:58:06;26.20;99.90
3202;DHT22;34843;48.744;8.958;2022-07-29T15:00:31;26.20;99.90
3202;DHT22;34843;48.744;8.958;2022-07-29T15:02:59;26.30;99.90
3202;DHT22;34843;48.744;8.958;2022-07-29T15:05:25;26.20;99.90
3202;DHT22;34843;48.744;8.958;2022-07-29T15:07:51;26.20;99.90
3202;DHT22;34843;48.744;8.958;2022-07-29T15:10:16;26.10;99.90
3202;DHT22;34843;48.744;8.958;2022-07-29T15:12:42;26.00;99.90
3202;DHT22;34843;48.744;8.958;2022-07-29T15:15:08;26.00;99.90
3202;DHT22;34843;48.744;8.958;2022-07-29T15:17:34;26.10;99.90
3202;DHT22;34843;48.744;8.958;2022-07-29T15:20:00;26.10;99.90
3202;DHT22;34843;48.744;8.958;2022-07-29T15:22:25;26.10;99.90
3202;DHT22;34843;48.744;8.958;2022-07-29T15:24:51;26.20;99.90
3202;DHT22;34843;48.744;8.958;2022-07-29T15:27:16;26.30;99.90
3202;DHT22;34843;48.744;8.958;2022-07-29T15:29:43;26.30;99.90
3202;DHT22;34843;48.744;8.958;2022-07-29T15:32:09;26.40;99.90
3202;DHT22;34843;48.744;8.958;2022-07-29T15:34:36;26.40;99.90
3202;DHT22;34843;48.744;8.958;2022-07-29T15:37:02;26.20;99.90
3202;DHT22;34843;48.744;8.958;2022-07-29T15:39:27;26.10;99.90
3202;DHT22;34843;48.744;8.958;2022-07-29T15:41:53;26.10;99.90
3202;DHT22;34843;48.744;8.958;2022-07-29T15:44:19;26.10;99.90
3202;DHT22;34843;48.744;8.958;2022-07-29T15:46:45;26.10;99.90
3202;DHT22;34843;48.744;8.958;2022-07-29T15:49:37;26.10;99.90
3202;DHT22;34843;48.744;8.958;2022-07-29T15:52:05;26.10;99.90
3202;DHT22;34843;48.744;8.958;2022-07-29T15:54:35;26.20;99.90
3202;DHT22;34843;48.744;8.958;2022-07-29T15:57:02;26.10;99.90
3202;DHT22;34843;48.744;8.958;2022-07-29T15:59:28;26.10;99.90
3202;DHT22;34843;48.744;8.958;2022-07-29T16:01:53;26.00;99.90
3202;DHT22;34843;48.744;8.958;2022-07-29T16:04:19;25.90;99.90
3202;DHT22;34843;48.744;8.958;2022-07-29T16:06:46;25.80;99.90
3202;DHT22;34843;48.744;8.958;2022-07-29T16:09:12;25.60;99.90
3202;DHT22;34843;48.744;8.958;2022-07-29T16:11:38;25.50;99.90
3202;DHT22;34843;48.744;8.958;2022-07-29T16:14:04;25.50;99.90
3202;DHT22;34843;48.744;8.958;2022-07-29T16:16:30;25.50;99.90
3202;DHT22;34843;48.744;8.958;2022-07-29T16:18:56;25.50;99.90
3202;DHT22;34843;48.744;8.958;2022-07-29T16:21:21;25.40;99.90
3202;DHT22;34843;48.744;8.958;2022-07-29T16:23:48;25.30;99.90
3202;DHT22;34843;48.744;8.958;2022-07-29T16:26:13;25.10;99.90